Tuttle, North Dakota
Current Conditions -  °F | °C
As of 10:15 AM on Friday 24 Oct 2014 (Local Time) from K5H4 Reporting Station
Clear Clear  
Wind Chill: 55°   Ceiling: Unl
Heat Index: 55°   Visibility: 10mi
Dew Point: 39°   Wind: 13mph
Humidity: 54%   Direction: 250°WSW
Pressure: 29.81"   Gusts: NA
Location:  47.14°N, 99.99°W
Report Text: K5H4 241515Z AUTO 25011KT 10SM CLR 13/04 A2981 RMK AO2
Loading
Personal Weather Stations






























Interactive Weather Map
Tropical Storm Tracking
New forecast layout! Learn more

10-Day Weather Forecast

Advertisements
Track Severe Weather on mobile